Frobisher, Canada
Current Conditions -  °F | °C
As of 3:00 PM on Monday 24 Nov 2014 (Local Time) from CYEN Reporting Station
Overcast Overcast  
Wind Chill: 11°   Ceiling: 3000
Heat Index: 21°   Visibility: 15mi
Dew Point: 16°   Wind: 9mph
Humidity: 80%   Direction: 250°WSW
Pressure: 29.93"   Gusts: NA
Location:  49.2°N, 102.42°W
Report Text: CYEN 242100Z 25008KT 15SM FEW020 OVC030 M06/M09 A2993 RMKSC1SC7 SLP179
Loading
Personal Weather Stations






























Interactive Weather Map New forecast layout! Learn more

10-Day Weather Forecast

Advertisements
Track Severe Weather on mobile